sensor_id;sensor_type;location;lat;lon;timestamp;pressure;altitude;pressure_sealevel;temperature;humidity
74621;BME280;64861;47.546;19.254;2023-05-29T00:01:26;99235.50;;;21.96;61.25
74621;BME280;64861;47.546;19.254;2023-05-29T00:03:52;99229.38;;;21.96;61.38
74621;BME280;64861;47.546;19.254;2023-05-29T00:06:20;99230.53;;;21.93;61.48
74621;BME280;64861;47.546;19.254;2023-05-29T00:08:46;99225.56;;;21.90;61.30
74621;BME280;64861;47.546;19.254;2023-05-29T00:11:12;99227.03;;;21.93;61.19
74621;BME280;64861;47.546;19.254;2023-05-29T00:13:38;99236.00;;;21.92;61.37
74621;BME280;64861;47.546;19.254;2023-05-29T00:16:03;99229.03;;;21.91;61.50
74621;BME280;64861;47.546;19.254;2023-05-29T00:18:30;99222.72;;;21.92;61.31
74621;BME280;64861;47.546;19.254;2023-05-29T00:20:55;99233.88;;;21.95;61.51
74621;BME280;64861;47.546;19.254;2023-05-29T00:23:21;99231.34;;;21.94;61.03
74621;BME280;64861;47.546;19.254;2023-05-29T00:25:47;99226.72;;;21.88;61.31
74621;BME280;64861;47.546;19.254;2023-05-29T00:28:12;99232.03;;;21.88;61.34
74621;BME280;64861;47.546;19.254;2023-05-29T00:30:39;99229.56;;;21.86;61.47
74621;BME280;64861;47.546;19.254;2023-05-29T00:33:04;99222.41;;;21.87;61.27
74621;BME280;64861;47.546;19.254;2023-05-29T00:35:30;99233.53;;;21.90;61.24
74621;BME280;64861;47.546;19.254;2023-05-29T00:37:55;99230.69;;;21.92;61.38
74621;BME280;64861;47.546;19.254;2023-05-29T00:40:21;99224.53;;;21.91;61.45
74621;BME280;64861;47.546;19.254;2023-05-29T00:42:46;99224.72;;;21.90;61.48
74621;BME280;64861;47.546;19.254;2023-05-29T00:45:12;99219.41;;;21.90;61.62
74621;BME280;64861;47.546;19.254;2023-05-29T00:47:39;99226.72;;;21.88;61.42
74621;BME280;64861;47.546;19.254;2023-05-29T00:50:06;99220.91;;;21.84;61.43
74621;BME280;64861;47.546;19.254;2023-05-29T00:52:32;99216.25;;;21.86;61.64
74621;BME280;64861;47.546;19.254;2023-05-29T00:54:57;99231.06;;;21.89;61.29
74621;BME280;64861;47.546;19.254;2023-05-29T00:57:26;99220.75;;;21.86;61.30
74621;BME280;64861;47.546;19.254;2023-05-29T00:59:52;99226.91;;;21.86;61.42
74621;BME280;64861;47.546;19.254;2023-05-29T01:02:18;99219.91;;;21.85;61.33
74621;BME280;64861;47.546;19.254;2023-05-29T01:04:45;99221.09;;;21.83;61.34
74621;BME280;64861;47.546;19.254;2023-05-29T01:07:11;99219.09;;;21.85;61.54
74621;BME280;64861;47.546;19.254;2023-05-29T01:09:36;99222.22;;;21.88;61.23
74621;BME280;64861;47.546;19.254;2023-05-29T01:20:47;99212.31;;;22.13;59.84
74621;BME280;64861;47.546;19.254;2023-05-29T01:23:40;99214.97;;;22.13;59.91
74621;BME280;64861;47.546;19.254;2023-05-29T01:26:23;99215.13;;;22.12;60.03
74621;BME280;64861;47.546;19.254;2023-05-29T01:28:52;99208.34;;;22.09;60.14
74621;BME280;64861;47.546;19.254;2023-05-29T01:31:23;99201.19;;;22.10;59.95
74621;BME280;64861;47.546;19.254;2023-05-29T01:33:57;99203.03;;;22.09;59.87
74621;BME280;64861;47.546;19.254;2023-05-29T01:36:24;99202.19;;;22.09;60.08
74621;BME280;64861;47.546;19.254;2023-05-29T01:38:51;99197.22;;;22.05;60.06
74621;BME280;64861;47.546;19.254;2023-05-29T01:41:18;99203.53;;;22.04;60.09
74621;BME280;64861;47.546;19.254;2023-05-29T01:43:45;99196.22;;;22.07;59.96
74621;BME280;64861;47.546;19.254;2023-05-29T01:46:14;99197.03;;;22.07;59.90
74621;BME280;64861;47.546;19.254;2023-05-29T01:48:41;99197.38;;;22.04;60.05
74621;BME280;64861;47.546;19.254;2023-05-29T01:51:10;99201.88;;;22.03;59.89
74621;BME280;64861;47.546;19.254;2023-05-29T01:53:37;99205.38;;;22.04;60.05
74621;BME280;64861;47.546;19.254;2023-05-29T01:56:04;99203.72;;;22.03;60.06
74621;BME280;64861;47.546;19.254;2023-05-29T01:58:30;99203.72;;;22.03;59.68
74621;BME280;64861;47.546;19.254;2023-05-29T02:00:57;99196.06;;;22.00;60.06
74621;BME280;64861;47.546;19.254;2023-05-29T02:03:22;99192.75;;;21.98;60.00
74621;BME280;64861;47.546;19.254;2023-05-29T02:05:49;99195.13;;;21.93;59.97
74621;BME280;64861;47.546;19.254;2023-05-29T02:08:14;99187.63;;;21.96;60.14
74621;BME280;64861;47.546;19.254;2023-05-29T02:10:40;99182.44;;;21.95;60.16
74621;BME280;64861;47.546;19.254;2023-05-29T02:13:05;99183.31;;;21.95;60.02
74621;BME280;64861;47.546;19.254;2023-05-29T02:15:31;99186.13;;;21.94;60.20
74621;BME280;64861;47.546;19.254;2023-05-29T02:17:56;99175.66;;;21.92;60.22
74621;BME280;64861;47.546;19.254;2023-05-29T02:20:24;99174.66;;;21.93;60.12
74621;BME280;64861;47.546;19.254;2023-05-29T02:22:49;99174.19;;;21.90;60.11
74621;BME280;64861;47.546;19.254;2023-05-29T02:25:15;99170.50;;;21.91;60.38
74621;BME280;64861;47.546;19.254;2023-05-29T02:27:40;99179.50;;;21.90;60.15
74621;BME280;64861;47.546;19.254;2023-05-29T02:30:07;99177.00;;;21.88;60.17
74621;BME280;64861;47.546;19.254;2023-05-29T02:32:33;99169.88;;;21.80;61.10
74621;BME280;64861;47.546;19.254;2023-05-29T02:34:59;99173.03;;;21.84;60.19
74621;BME280;64861;47.546;19.254;2023-05-29T02:37:24;99174.69;;;21.85;60.34
74621;BME280;64861;47.546;19.254;2023-05-29T02:39:50;99176.50;;;21.85;60.37
74621;BME280;64861;47.546;19.254;2023-05-29T02:42:16;99174.88;;;21.84;60.43
74621;BME280;64861;47.546;19.254;2023-05-29T02:44:41;99165.06;;;21.84;60.33
74621;BME280;64861;47.546;19.254;2023-05-29T02:47:07;99165.72;;;21.86;60.22
74621;BME280;64861;47.546;19.254;2023-05-29T02:49:32;99169.53;;;21.84;60.17
74621;BME280;64861;47.546;19.254;2023-05-29T02:51:57;99157.59;;;21.79;60.41
74621;BME280;64861;47.546;19.254;2023-05-29T02:54:24;99167.22;;;21.80;60.20
74621;BME280;64861;47.546;19.254;2023-05-29T02:56:50;99161.09;;;21.80;60.33
74621;BME280;64861;47.546;19.254;2023-05-29T02:59:16;99161.44;;;21.77;60.43
74621;BME280;64861;47.546;19.254;2023-05-29T03:01:41;99152.44;;;21.78;60.54
74621;BME280;64861;47.546;19.254;2023-05-29T03:04:08;99165.09;;;21.76;60.44
74621;BME280;64861;47.546;19.254;2023-05-29T03:06:35;99168.59;;;21.76;60.33
74621;BME280;64861;47.546;19.254;2023-05-29T03:09:02;99166.75;;;21.77;60.52
74621;BME280;64861;47.546;19.254;2023-05-29T03:11:28;99168.41;;;21.78;60.69
74621;BME280;64861;47.546;19.254;2023-05-29T03:13:54;99169.41;;;21.77;60.63
74621;BME280;64861;47.546;19.254;2023-05-29T03:16:20;99170.75;;;21.73;60.74
74621;BME280;64861;47.546;19.254;2023-05-29T03:18:46;99167.09;;;21.74;60.57
74621;BME280;64861;47.546;19.254;2023-05-29T03:21:11;99156.44;;;21.74;60.81
74621;BME280;64861;47.546;19.254;2023-05-29T03:23:37;99167.09;;;21.74;60.57
74621;BME280;64861;47.546;19.254;2023-05-29T03:26:03;99165.25;;;21.74;60.46
74621;BME280;64861;47.546;19.254;2023-05-29T03:28:29;99167.28;;;21.72;60.55
74621;BME280;64861;47.546;19.254;2023-05-29T03:30:54;99170.56;;;21.74;60.66
74621;BME280;64861;47.546;19.254;2023-05-29T03:33:20;99168.09;;;21.73;60.56
74621;BME280;64861;47.546;19.254;2023-05-29T03:35:46;99176.09;;;21.73;60.38
74621;BME280;64861;47.546;19.254;2023-05-29T03:38:11;99182.22;;;21.73;60.51
74621;BME280;64861;47.546;19.254;2023-05-29T03:40:36;99188.56;;;21.72;60.57
74621;BME280;64861;47.546;19.254;2023-05-29T03:43:02;99185.03;;;21.72;60.33
74621;BME280;64861;47.546;19.254;2023-05-29T03:45:27;99193.69;;;21.74;60.57
74621;BME280;64861;47.546;19.254;2023-05-29T03:47:53;99192.03;;;21.73;60.43
74621;BME280;64861;47.546;19.254;2023-05-29T03:50:18;99200.50;;;21.76;60.39
74621;BME280;64861;47.546;19.254;2023-05-29T03:52:43;99198.00;;;21.75;60.33
74621;BME280;64861;47.546;19.254;2023-05-29T03:55:10;99201.47;;;21.75;60.41
74621;BME280;64861;47.546;19.254;2023-05-29T03:57:40;99200.66;;;21.75;60.43
74621;BME280;64861;47.546;19.254;2023-05-29T04:00:08;99194.38;;;21.76;60.25
74621;BME280;64861;47.546;19.254;2023-05-29T04:02:36;99204.16;;;21.75;60.41
74621;BME280;64861;47.546;19.254;2023-05-29T04:05:03;99196.16;;;21.75;60.47
74621;BME280;64861;47.546;19.254;2023-05-29T04:07:29;99199.50;;;21.77;60.29
74621;BME280;64861;47.546;19.254;2023-05-29T04:09:54;99198.66;;;21.77;60.31
74621;BME280;64861;47.546;19.254;2023-05-29T04:12:19;99201.34;;;21.77;60.32
74621;BME280;64861;47.546;19.254;2023-05-29T04:14:45;99203.81;;;21.78;60.27
74621;BME280;64861;47.546;19.254;2023-05-29T04:17:10;99199.34;;;21.79;60.45
74621;BME280;64861;47.546;19.254;2023-05-29T04:19:36;99208.28;;;21.78;60.44
74621;BME280;64861;47.546;19.254;2023-05-29T04:22:02;99215.94;;;21.81;60.19
74621;BME280;64861;47.546;19.254;2023-05-29T04:24:27;99209.78;;;21.80;60.28
74621;BME280;64861;47.546;19.254;2023-05-29T04:26:52;99214.09;;;21.81;60.24
74621;BME280;64861;47.546;19.254;2023-05-29T04:29:18;99213.13;;;21.83;60.14
74621;BME280;64861;47.546;19.254;2023-05-29T04:31:44;99206.78;;;21.84;60.08
74621;BME280;64861;47.546;19.254;2023-05-29T04:34:10;99216.91;;;21.88;60.02
74621;BME280;64861;47.546;19.254;2023-05-29T04:36:35;99217.38;;;21.92;60.02
74621;BME280;64861;47.546;19.254;2023-05-29T04:39:05;99219.19;;;21.99;59.85
74621;BME280;64861;47.546;19.254;2023-05-29T04:41:30;99213.19;;;22.05;59.75
74621;BME280;64861;47.546;19.254;2023-05-29T04:43:56;99214.31;;;22.11;59.48
74621;BME280;64861;47.546;19.254;2023-05-29T04:46:23;99213.00;;;22.15;59.19
74621;BME280;64861;47.546;19.254;2023-05-29T04:48:49;99215.81;;;22.22;58.87
74621;BME280;64861;47.546;19.254;2023-05-29T04:51:21;99219.78;;;22.26;58.57
74621;BME280;64861;47.546;19.254;2023-05-29T04:53:47;99217.75;;;22.28;58.49
74621;BME280;64861;47.546;19.254;2023-05-29T04:56:13;99223.19;;;22.35;58.24
74621;BME280;64861;47.546;19.254;2023-05-29T04:58:39;99224.53;;;22.39;58.08
74621;BME280;64861;47.546;19.254;2023-05-29T05:01:06;99218.84;;;22.42;58.30
74621;BME280;64861;47.546;19.254;2023-05-29T05:03:33;99220.16;;;22.46;57.84
74621;BME280;64861;47.546;19.254;2023-05-29T05:06:02;99218.59;;;22.51;57.69
74621;BME280;64861;47.546;19.254;2023-05-29T05:08:29;99223.41;;;22.56;57.56
74621;BME280;64861;47.546;19.254;2023-05-29T05:10:55;99222.88;;;22.61;57.55
74621;BME280;64861;47.546;19.254;2023-05-29T05:13:20;99217.19;;;22.64;57.73
74621;BME280;64861;47.546;19.254;2023-05-29T05:15:46;99219.34;;;22.68;57.46
74621;BME280;64861;47.546;19.254;2023-05-29T05:18:12;99218.13;;;22.71;57.44
74621;BME280;64861;47.546;19.254;2023-05-29T05:20:37;99221.25;;;22.74;57.33
74621;BME280;64861;47.546;19.254;2023-05-29T05:23:03;99225.25;;;22.79;57.28
74621;BME280;64861;47.546;19.254;2023-05-29T05:25:28;99228.19;;;22.84;57.22
74621;BME280;64861;47.546;19.254;2023-05-29T05:27:54;99234.00;;;22.87;57.11
74621;BME280;64861;47.546;19.254;2023-05-29T05:30:19;99223.19;;;22.89;57.11
74621;BME280;64861;47.546;19.254;2023-05-29T05:32:45;99226.81;;;22.96;56.92
74621;BME280;64861;47.546;19.254;2023-05-29T05:35:10;99230.59;;;23.02;56.91
74621;BME280;64861;47.546;19.254;2023-05-29T05:37:37;99224.06;;;23.04;56.68
74621;BME280;64861;47.546;19.254;2023-05-29T05:40:03;99231.69;;;23.07;56.82
74621;BME280;64861;47.546;19.254;2023-05-29T05:42:31;99226.00;;;23.10;56.48
74621;BME280;64861;47.546;19.254;2023-05-29T05:44:57;99230.16;;;23.13;56.42
74621;BME280;64861;47.546;19.254;2023-05-29T05:47:22;99226.94;;;23.17;56.32
74621;BME280;64861;47.546;19.254;2023-05-29T05:49:48;99229.25;;;23.20;56.12
74621;BME280;64861;47.546;19.254;2023-05-29T05:52:15;99222.81;;;23.15;56.20
74621;BME280;64861;47.546;19.254;2023-05-29T05:54:41;99233.84;;;23.12;56.40
74621;BME280;64861;47.546;19.254;2023-05-29T05:57:07;99233.28;;;23.16;56.18
74621;BME280;64861;47.546;19.254;2023-05-29T05:59:32;99240.00;;;23.12;56.19
74621;BME280;64861;47.546;19.254;2023-05-29T06:01:58;99244.03;;;23.08;56.46
74621;BME280;64861;47.546;19.254;2023-05-29T06:04:23;99245.56;;;23.03;56.71
74621;BME280;64861;47.546;19.254;2023-05-29T06:06:49;99248.13;;;22.96;56.77
74621;BME280;64861;47.546;19.254;2023-05-29T06:09:14;99247.97;;;22.89;56.97
74621;BME280;64861;47.546;19.254;2023-05-29T06:11:40;99248.53;;;22.85;56.97
74621;BME280;64861;47.546;19.254;2023-05-29T06:14:05;99252.72;;;22.79;57.31
74621;BME280;64861;47.546;19.254;2023-05-29T06:16:31;99252.06;;;22.77;57.32
74621;BME280;64861;47.546;19.254;2023-05-29T06:18:56;99257.75;;;22.74;57.43
74621;BME280;64861;47.546;19.254;2023-05-29T06:21:22;99253.44;;;22.73;57.61
74621;BME280;64861;47.546;19.254;2023-05-29T06:23:48;99258.56;;;22.74;57.40
74621;BME280;64861;47.546;19.254;2023-05-29T06:26:14;99259.69;;;22.80;57.32
74621;BME280;64861;47.546;19.254;2023-05-29T06:28:41;99254.78;;;22.92;56.83
74621;BME280;64861;47.546;19.254;2023-05-29T06:31:06;99262.47;;;22.95;56.76
74621;BME280;64861;47.546;19.254;2023-05-29T06:33:32;99263.09;;;22.97;56.74
74621;BME280;64861;47.546;19.254;2023-05-29T06:35:57;99268.84;;;23.09;56.34
74621;BME280;64861;47.546;19.254;2023-05-29T06:38:23;99271.53;;;23.24;55.97
74621;BME280;64861;47.546;19.254;2023-05-29T06:40:48;99268.28;;;23.36;55.61
74621;BME280;64861;47.546;19.254;2023-05-29T06:43:14;99271.50;;;23.47;55.22
74621;BME280;64861;47.546;19.254;2023-05-29T06:45:39;99263.81;;;23.52;54.82
74621;BME280;64861;47.546;19.254;2023-05-29T06:48:06;99270.06;;;23.59;54.79
74621;BME280;64861;47.546;19.254;2023-05-29T06:50:31;99276.59;;;23.56;54.86
74621;BME280;64861;47.546;19.254;2023-05-29T06:52:57;99273.53;;;23.44;55.22
74621;BME280;64861;47.546;19.254;2023-05-29T06:55:22;99272.94;;;23.34;55.49
74621;BME280;64861;47.546;19.254;2023-05-29T06:57:48;99273.50;;;23.30;55.66
74621;BME280;64861;47.546;19.254;2023-05-29T07:00:14;99278.72;;;23.23;55.81
74621;BME280;64861;47.546;19.254;2023-05-29T07:02:39;99274.94;;;23.17;55.96
74621;BME280;64861;47.546;19.254;2023-05-29T07:05:05;99280.13;;;23.34;55.55
74621;BME280;64861;47.546;19.254;2023-05-29T07:07:31;99278.50;;;23.48;55.33
74621;BME280;64861;47.546;19.254;2023-05-29T07:09:56;99275.47;;;23.51;55.02
74621;BME280;64861;47.546;19.254;2023-05-29T07:12:22;99278.69;;;23.46;55.14
74621;BME280;64861;47.546;19.254;2023-05-29T07:14:50;99281.53;;;23.44;55.21
74621;BME280;64861;47.546;19.254;2023-05-29T07:17:16;99269.03;;;23.45;55.14
74621;BME280;64861;47.546;19.254;2023-05-29T07:19:41;99276.84;;;23.47;55.14
74621;BME280;64861;47.546;19.254;2023-05-29T07:22:07;99274.72;;;23.42;55.14
74621;BME280;64861;47.546;19.254;2023-05-29T07:24:32;99285.56;;;23.40;55.51
74621;BME280;64861;47.546;19.254;2023-05-29T07:26:58;99283.81;;;23.33;55.53
74621;BME280;64861;47.546;19.254;2023-05-29T07:29:24;99285.66;;;23.32;55.73
74621;BME280;64861;47.546;19.254;2023-05-29T07:31:50;99291.34;;;23.29;55.81
74621;BME280;64861;47.546;19.254;2023-05-29T07:34:16;99287.38;;;23.25;55.87
74621;BME280;64861;47.546;19.254;2023-05-29T07:37:00;99294.06;;;23.21;56.01
74621;BME280;64861;47.546;19.254;2023-05-29T07:39:26;99295.28;;;23.18;56.15
74621;BME280;64861;47.546;19.254;2023-05-29T07:41:52;99307.59;;;23.19;56.05
74621;BME280;64861;47.546;19.254;2023-05-29T07:44:18;99310.25;;;23.19;56.12
74621;BME280;64861;47.546;19.254;2023-05-29T07:46:46;99311.97;;;23.12;56.38
74621;BME280;64861;47.546;19.254;2023-05-29T07:49:11;99325.81;;;23.08;56.47
74621;BME280;64861;47.546;19.254;2023-05-29T07:51:37;99320.38;;;23.01;56.63
74621;BME280;64861;47.546;19.254;2023-05-29T07:54:03;99324.88;;;23.01;56.60
74621;BME280;64861;47.546;19.254;2023-05-29T07:56:28;99321.38;;;23.00;56.76
74621;BME280;64861;47.546;19.254;2023-05-29T07:58:54;99323.22;;;23.00;56.80
74621;BME280;64861;47.546;19.254;2023-05-29T08:01:21;99322.06;;;23.02;56.77
74621;BME280;64861;47.546;19.254;2023-05-29T08:03:47;99324.16;;;23.07;56.52
74621;BME280;64861;47.546;19.254;2023-05-29T08:06:13;99333.00;;;23.07;56.46
74621;BME280;64861;47.546;19.254;2023-05-29T08:08:38;99324.06;;;23.23;56.21
74621;BME280;64861;47.546;19.254;2023-05-29T08:11:04;99320.84;;;23.28;55.97
74621;BME280;64861;47.546;19.254;2023-05-29T08:13:30;99315.50;;;23.28;55.89
74621;BME280;64861;47.546;19.254;2023-05-29T08:15:56;99314.44;;;23.37;55.84
74621;BME280;64861;47.546;19.254;2023-05-29T08:18:24;99313.75;;;23.58;55.19
74621;BME280;64861;47.546;19.254;2023-05-29T08:20:50;99311.25;;;23.79;54.64
74621;BME280;64861;47.546;19.254;2023-05-29T08:23:15;99307.47;;;23.88;54.09
74621;BME280;64861;47.546;19.254;2023-05-29T08:25:41;99305.72;;;23.96;54.05
74621;BME280;64861;47.546;19.254;2023-05-29T08:28:06;99312.53;;;23.98;53.96
74621;BME280;64861;47.546;19.254;2023-05-29T08:30:32;99311.81;;;24.04;53.71
74621;BME280;64861;47.546;19.254;2023-05-29T08:32:57;99312.34;;;24.14;53.41
74621;BME280;64861;47.546;19.254;2023-05-29T08:35:23;99308.09;;;24.20;53.34
74621;BME280;64861;47.546;19.254;2023-05-29T08:37:48;99311.50;;;24.29;52.85
74621;BME280;64861;47.546;19.254;2023-05-29T08:40:13;99307.28;;;24.34;52.92
74621;BME280;64861;47.546;19.254;2023-05-29T08:42:51;99302.31;;;24.31;53.03
74621;BME280;64861;47.546;19.254;2023-05-29T08:45:18;99300.16;;;24.27;52.89
74621;BME280;64861;47.546;19.254;2023-05-29T08:47:50;99299.91;;;24.22;53.16
74621;BME280;64861;47.546;19.254;2023-05-29T08:50:17;99302.13;;;24.18;53.23
74621;BME280;64861;47.546;19.254;2023-05-29T08:52:44;99301.31;;;24.18;53.13
74621;BME280;64861;47.546;19.254;2023-05-29T08:55:10;99307.72;;;24.38;52.88
74621;BME280;64861;47.546;19.254;2023-05-29T08:57:36;99311.91;;;25.69;49.52
74621;BME280;64861;47.546;19.254;2023-05-29T09:00:03;99305.91;;;24.75;51.84
74621;BME280;64861;47.546;19.254;2023-05-29T09:02:46;99304.28;;;24.74;51.90
74621;BME280;64861;47.546;19.254;2023-05-29T09:05:12;99308.38;;;25.13;50.93
74621;BME280;64861;47.546;19.254;2023-05-29T09:07:38;99309.31;;;25.05;50.70
74621;BME280;64861;47.546;19.254;2023-05-29T09:10:05;99311.63;;;24.72;51.85
74621;BME280;64861;47.546;19.254;2023-05-29T09:12:32;99311.47;;;24.95;51.17
74621;BME280;64861;47.546;19.254;2023-05-29T09:14:58;99313.44;;;24.86;51.79
74621;BME280;64861;47.546;19.254;2023-05-29T09:17:23;99320.69;;;24.92;51.52
74621;BME280;64861;47.546;19.254;2023-05-29T09:19:50;99312.72;;;24.41;52.71
74621;BME280;64861;47.546;19.254;2023-05-29T09:22:15;99311.63;;;23.91;54.01
74621;BME280;64861;47.546;19.254;2023-05-29T09:24:43;99316.13;;;23.76;54.54
74621;BME280;64861;47.546;19.254;2023-05-29T09:27:11;99307.66;;;23.72;54.63
74621;BME280;64861;47.546;19.254;2023-05-29T09:29:42;99307.41;;;23.59;54.73
74621;BME280;64861;47.546;19.254;2023-05-29T09:32:12;99311.00;;;23.51;55.12
74621;BME280;64861;47.546;19.254;2023-05-29T09:34:38;99318.69;;;23.46;55.34
74621;BME280;64861;47.546;19.254;2023-05-29T09:37:08;99311.88;;;23.43;55.59
74621;BME280;64861;47.546;19.254;2023-05-29T09:39:53;99316.22;;;23.44;55.43
74621;BME280;64861;47.546;19.254;2023-05-29T09:42:18;99316.03;;;23.46;55.56
74621;BME280;64861;47.546;19.254;2023-05-29T09:44:46;99320.34;;;23.47;55.49
74621;BME280;64861;47.546;19.254;2023-05-29T09:47:17;99316.84;;;23.47;55.46
74621;BME280;64861;47.546;19.254;2023-05-29T09:49:43;99318.13;;;23.51;55.36
74621;BME280;64861;47.546;19.254;2023-05-29T09:52:13;99317.50;;;23.49;55.25
74621;BME280;64861;47.546;19.254;2023-05-29T09:54:41;99310.69;;;23.46;55.37
74621;BME280;64861;47.546;19.254;2023-05-29T09:57:07;99313.00;;;23.49;55.50
74621;BME280;64861;47.546;19.254;2023-05-29T09:59:33;99313.00;;;23.49;55.48
74621;BME280;64861;47.546;19.254;2023-05-29T10:02:02;99312.91;;;23.42;55.53
74621;BME280;64861;47.546;19.254;2023-05-29T10:04:33;99314.63;;;23.35;55.76
74621;BME280;64861;47.546;19.254;2023-05-29T10:07:08;99316.00;;;23.31;55.88
74621;BME280;64861;47.546;19.254;2023-05-29T10:09:47;99319.38;;;23.25;55.95
74621;BME280;64861;47.546;19.254;2023-05-29T10:12:18;99317.22;;;23.20;56.20
74621;BME280;64861;47.546;19.254;2023-05-29T10:14:49;99321.94;;;23.18;56.21
74621;BME280;64861;47.546;19.254;2023-05-29T10:17:17;99324.13;;;23.15;56.40
74621;BME280;64861;47.546;19.254;2023-05-29T10:19:45;99327.97;;;23.12;56.60
74621;BME280;64861;47.546;19.254;2023-05-29T10:22:13;99330.16;;;23.09;56.64
74621;BME280;64861;47.546;19.254;2023-05-29T10:24:39;99332.84;;;23.09;56.64
74621;BME280;64861;47.546;19.254;2023-05-29T10:27:05;99324.53;;;23.04;56.92
74621;BME280;64861;47.546;19.254;2023-05-29T10:29:41;99325.34;;;23.04;56.68
74621;BME280;64861;47.546;19.254;2023-05-29T10:40:13;99321.84;;;23.04;56.84
74621;BME280;64861;47.546;19.254;2023-05-29T10:42:48;99313.88;;;23.04;56.77
74621;BME280;64861;47.546;19.254;2023-05-29T10:50:41;99311.97;;;23.12;56.58
74621;BME280;64861;47.546;19.254;2023-05-29T10:53:07;99307.47;;;23.13;56.52
74621;BME280;64861;47.546;19.254;2023-05-29T10:55:39;99302.13;;;23.13;56.55
74621;BME280;64861;47.546;19.254;2023-05-29T10:58:08;99307.47;;;23.13;56.50
74621;BME280;64861;47.546;19.254;2023-05-29T11:00:42;99302.31;;;23.11;56.48
74621;BME280;64861;47.546;19.254;2023-05-29T11:03:09;99303.16;;;23.12;56.53
74621;BME280;64861;47.546;19.254;2023-05-29T11:05:59;99307.66;;;23.11;56.63
74621;BME280;64861;47.546;19.254;2023-05-29T11:08:55;99307.66;;;23.11;56.56
74621;BME280;64861;47.546;19.254;2023-05-29T11:13:52;99298.81;;;23.11;56.56
74621;BME280;64861;47.546;19.254;2023-05-29T11:19:14;99297.47;;;23.15;56.59
74621;BME280;64861;47.546;19.254;2023-05-29T11:24:25;99293.59;;;23.17;56.35
74621;BME280;64861;47.546;19.254;2023-05-29T11:26:52;99295.06;;;23.20;56.28
74621;BME280;64861;47.546;19.254;2023-05-29T11:29:22;99297.38;;;23.23;56.29
74621;BME280;64861;47.546;19.254;2023-05-29T11:31:49;99285.53;;;23.26;56.16
74621;BME280;64861;47.546;19.254;2023-05-29T11:34:20;99290.31;;;23.30;55.94
74621;BME280;64861;47.546;19.254;2023-05-29T11:36:46;99282.16;;;23.32;56.04
74621;BME280;64861;47.546;19.254;2023-05-29T11:39:14;99292.47;;;23.35;55.87
74621;BME280;64861;47.546;19.254;2023-05-29T11:41:39;99282.78;;;23.34;55.86
74621;BME280;64861;47.546;19.254;2023-05-29T11:44:05;99286.28;;;23.34;55.84
74621;BME280;64861;47.546;19.254;2023-05-29T11:46:34;99286.94;;;23.36;55.77
74621;BME280;64861;47.546;19.254;2023-05-29T11:49:00;99276.28;;;23.36;55.84
74621;BME280;64861;47.546;19.254;2023-05-29T11:51:26;99281.81;;;23.35;55.85
74621;BME280;64861;47.546;19.254;2023-05-29T11:53:52;99277.44;;;23.34;55.90
74621;BME280;64861;47.546;19.254;2023-05-29T11:56:28;99265.81;;;23.35;55.83
74621;BME280;64861;47.546;19.254;2023-05-29T11:58:55;99263.59;;;23.38;55.70
74621;BME280;64861;47.546;19.254;2023-05-29T12:01:25;99255.41;;;23.40;55.86
74621;BME280;64861;47.546;19.254;2023-05-29T12:03:52;99249.03;;;23.41;55.86
74621;BME280;64861;47.546;19.254;2023-05-29T12:06:34;99243.00;;;23.47;55.56
74621;BME280;64861;47.546;19.254;2023-05-29T12:09:01;99247.34;;;23.48;55.48
74621;BME280;64861;47.546;19.254;2023-05-29T12:11:27;99235.81;;;23.48;55.33
74621;BME280;64861;47.546;19.254;2023-05-29T12:14:00;99238.47;;;23.48;55.48
74621;BME280;64861;47.546;19.254;2023-05-29T12:16:31;99228.22;;;23.44;55.62
74621;BME280;64861;47.546;19.254;2023-05-29T12:18:58;99228.84;;;23.47;55.50
74621;BME280;64861;47.546;19.254;2023-05-29T12:21:23;99220.81;;;23.47;55.30
74621;BME280;64861;47.546;19.254;2023-05-29T12:23:53;99219.19;;;23.45;55.63
74621;BME280;64861;47.546;19.254;2023-05-29T12:26:22;99214.47;;;23.48;55.53
74621;BME280;64861;47.546;19.254;2023-05-29T12:28:49;99211.19;;;23.45;55.54
74621;BME280;64861;47.546;19.254;2023-05-29T12:31:29;99214.47;;;23.48;55.44
74621;BME280;64861;47.546;19.254;2023-05-29T12:34:01;99207.69;;;23.45;55.63
74621;BME280;64861;47.546;19.254;2023-05-29T12:36:27;99208.50;;;23.45;55.73
74621;BME280;64861;47.546;19.254;2023-05-29T12:38:52;99195.09;;;23.39;55.65
74621;BME280;64861;47.546;19.254;2023-05-29T12:41:37;99205.19;;;23.43;55.79
74621;BME280;64861;47.546;19.254;2023-05-29T12:44:04;99206.56;;;23.39;55.94
74621;BME280;64861;47.546;19.254;2023-05-29T12:46:40;99207.22;;;23.41;55.84
74621;BME280;64861;47.546;19.254;2023-05-29T12:49:18;99212.38;;;23.43;55.88
74621;BME280;64861;47.546;19.254;2023-05-29T12:51:45;99206.88;;;23.44;55.76
74621;BME280;64861;47.546;19.254;2023-05-29T12:54:12;99210.53;;;23.43;55.82
74621;BME280;64861;47.546;19.254;2023-05-29T12:56:39;99207.03;;;23.43;55.82
74621;BME280;64861;47.546;19.254;2023-05-29T12:59:09;99210.25;;;23.38;56.02
74621;BME280;64861;47.546;19.254;2023-05-29T13:01:36;99211.72;;;23.41;55.96
74621;BME280;64861;47.546;19.254;2023-05-29T13:04:04;99211.72;;;23.41;55.96
74621;BME280;64861;47.546;19.254;2023-05-29T13:06:32;99205.56;;;23.40;55.97
74621;BME280;64861;47.546;19.254;2023-05-29T13:08:57;99206.38;;;23.41;55.79
74621;BME280;64861;47.546;19.254;2023-05-29T13:11:23;99203.91;;;23.39;55.94
74621;BME280;64861;47.546;19.254;2023-05-29T13:13:50;99207.59;;;23.38;56.06
74621;BME280;64861;47.546;19.254;2023-05-29T13:16:15;99206.94;;;23.36;56.10
74621;BME280;64861;47.546;19.254;2023-05-29T13:18:43;99198.94;;;23.36;56.17
74621;BME280;64861;47.546;19.254;2023-05-29T13:21:08;99201.34;;;23.31;56.21